Main page
METAR-TAF:

METAR-TAF

Airports :

Victoria, Mahé, Seychelles

Seychelles International Airport

latitude: 04-40S, longitude: 055-31E, elevation: 3 m

Current weather observation

The report was made 1 hour and 15 minutes ago, at 08:00 UTC
Wind 9 kt from the Southeast
Temperature 29°C
Humidity 70%
Pressure 1013 hPa
Visibility 10 km or more
Scattered clouds at a height of 1700 ft

METAR: FSIA 230800Z 14009KT 9999 SCT017 29/23 Q1013 NOSIG

Time: 13:15 (09:15 UTC)

Forecast

The report was made 4 hours and 15 minutes ago, at 05:00 UTC
Forecast valid from 23 at 06 UTC to 24 at 06 UTC
Wind 10 kt from the Southeast
Visibility 10 km or more
Scattered clouds at a height of 1600 ft
Probability 30% :
Temporary
from 23 at 18 UTC to 23 at 24 UTC
Few clouds at a height of 1000 ft
Broken clouds at a height of 1500 ft
light rain showers

TAF: FSIA 230500Z 2306/2406 13010KT 9999 SCT016 PROB30 TEMPO 2318/2324 -SHRA FEW010 BKN015

Weather observations and forecasts of more than 4000 airports (METAR and TAF reports).

The available stations are represented by yellow and red dots on the map.

Hover mouse over dot to see the name of the station.

Then click to see weather observations and forecasts.

To change the map : click on the green buttons with a black cross to zoom in, on the green button with a dash to zoom out, or on the green arrows for adjacent maps.


METAR-TAF: